KDTW/DTW METAR and TAF weather

Enter ICAO airport designator
Station Type Date Time Source
KDTW METAR 2019/05/26 23:53 UTC NOAA

KDTW 262353Z 04005KT 10SM FEW012 SCT023 BKN120 19/15 A3004 RMK AO2 RAE11 SLP170 VIRGA NE-SW P0000 60000 T01890150 10200 20183 51005 $


Station Type Date Time Source
KDTW Decoded METAR 2019/05/26 23:53 UTC NOAA

DETROIT METROPOLITAN, MI, United States (KDTW) 42-14N 83-20W 195M
May 26, 2019 - 07:53 PM EDT / 2019.05.26 2353 UTC
Wind: from the NE (040 degrees) at 6 MPH (5 KT):0
Visibility: 10 mile(s):0
Sky conditions: mostly cloudy
Precipitation last hour: A trace
Temperature: 66.0 F (18.9 C)
Dew Point: 59.0 F (15.0 C)
Relative Humidity: 78%
Pressure (altimeter): 30.04 in. Hg (1017 hPa)
Pressure tendency: 0.01 inches (0.5 hPa) higher than three hours ago
ob: KDTW 262353Z 04005KT 10SM FEW012 SCT023 BKN120 19/15 A3004 RMK AO2 RAE11 SLP170 VIRGA NE-SW P0000 60000 T01890150 10200 20183 51005
cycle: 0

Station Type Date Time Source
KDTW TAF 2019/05/26 22:15 UTC NOAA

TAF
AMD KDTW 262212Z 2622/2724 04007KT P6SM BKN020 OVC060
FM270300 07004KT P6SM BKN050
FM270900 05005KT P6SM SCT050
FM271500 09005KT P6SM BKN200

Example: see airport list